No weather information

I face this problem on many flights, especially long ones. I need this informations to determine the most suitable runway for landing.

2 Likes

image

OKBK 231600Z 10006KT 8000 NSC 34/04 Q1008 NOSIG

Here is the current METAR, looks like you’re in the right direction

1 Like

Do I need to open Discord on every flight? 😅

well if it does show on the app then I would go to discord

1 Like

https://www.aviationweather.gov/metar

This website is great for finding the METAR

1 Like

Sometimes all you have to do is restart the app :)

1 Like

This topic was automatically closed 3 days after the last reply. New replies are no longer allowed.